Pucha Pucha, Argentina
Current Conditions -  °F | °C
As of 4:03 AM on Friday 31 Oct 2014 (Local Time) from SCAT Reporting Station
NA  
Wind Chill: 54°   Ceiling: NA
Heat Index: 54°   Visibility: 6mi
Dew Point: 50°   Wind: 3mph
Humidity: 88%   Direction: 300°WNW
Pressure: 29.97"   Gusts: NA
Location:  28.34°S, 69.22°W
Report Text: SCAT 310703Z AUTO 30003KT 260V060 9999 // ///009 12/10 Q1015
Loading
Personal Weather Stations






























Interactive Weather Map
Tropical Storm Tracking
New forecast layout! Learn more

10-Day Weather Forecast

Advertisements
Track Severe Weather on mobile